Time;durP1;ratioP1;P1;durP2;ratioP2;P2;SDS_P1;SDS_P2;PMS_P1;PMS_P2;Temp;Humidity;BMP_temperature;BMP_pressure;BME280_temperature;BME280_humidity;BME280_pressure;Samples;Min_cycle;Max_cycle;Signal;HPM_P1;HPM_P2
2022/07/21 00:01:12;;;;;;;;;;;;;;;23.05;58.41;153450.52;1707891;84;20452;-60
2022/07/21 00:03:39;;;;;;;;;;;;;;;22.97;58.79;153429.59;1708026;83;20203;-60
2022/07/21 00:06:06;;;;;;;;;;;;;;;22.87;59.06;153406.02;1708036;84;20195;-61
2022/07/21 00:08:33;;;;;;;;;;;;;;;22.76;59.53;153377.27;1708078;83;20503;-61
2022/07/21 00:11:01;;;;;;;;;;;;;;;22.64;59.65;153345.84;1710103;82;21225;-68
2022/07/21 00:13:27;;;;;;;;;;;;;;;22.53;60.30;153319.70;1708526;83;20485;-69
2022/07/21 00:15:54;;;;;;;;;;;;;;;22.45;60.82;153298.75;1708218;84;20168;-69
2022/07/21 00:18:21;;;;;;;;;;;;;;;22.36;61.12;153275.17;1685820;84;20760;-68
2022/07/21 00:20:48;;;;;;;;;;;;;;;22.27;61.57;153254.27;1716486;83;20159;-69
2022/07/21 00:23:14;;;;;;;;;;;;;;;22.19;61.93;153233.31;1716664;83;21149;-69
2022/07/21 00:25:41;;;;;;;;;;;;;;;22.10;62.15;153211.08;1716582;83;20200;-68
2022/07/21 00:28:08;;;;;;;;;;;;;;;22.01;62.51;153188.89;1716600;83;20227;-67
2022/07/21 00:30:35;;;;;;;;;;;;;;;21.97;62.92;153177.11;1716694;83;20215;-68
2022/07/21 00:33:02;;;;;;;;;;;;;;;21.95;62.95;153171.87;1716053;83;20212;-66
2022/07/21 00:35:29;;;;;;;;;;;;;;;21.93;62.92;153167.94;1716468;83;22086;-67
2022/07/21 00:37:56;;;;;;;;;;;;;;;21.86;63.19;153149.66;1715976;83;20255;-67
2022/07/21 00:40:24;;;;;;;;;;;;;;;21.80;63.57;153133.97;1716112;83;20235;-67
2022/07/21 00:42:51;;;;;;;;;;;;;;;21.75;63.81;153122.19;1716184;83;20511;-60
2022/07/21 00:45:17;;;;;;;;;;;;;;;21.70;64.07;153109.13;1716691;83;20184;-60
2022/07/21 00:47:45;;;;;;;;;;;;;;;21.63;64.67;153092.06;1716154;83;20836;-60
2022/07/21 00:50:13;;;;;;;;;;;;;;;21.56;64.29;153073.78;1716330;83;20132;-60
2022/07/21 00:52:43;;;;;;;;;;;;;;;21.50;64.91;153058.06;1716927;83;33619;-60
2022/07/21 00:55:12;;;;;;;;;;;;;;;21.44;66.27;153045.00;1716454;83;20190;-67
2022/07/21 00:57:41;;;;;;;;;;;;;;;21.32;66.38;153013.61;1716953;83;20216;-66
2022/07/21 01:00:11;;;;;;;;;;;;;;;21.20;67.25;152982.27;1716232;83;21166;-66
2022/07/21 01:02:37;;;;;;;;;;;;;;;21.04;67.93;152943.05;1716488;83;20219;-67
2022/07/21 01:05:05;;;;;;;;;;;;;;;20.94;67.72;152918.20;1716473;83;20203;-66
2022/07/21 01:07:32;;;;;;;;;;;;;;;20.93;67.55;152915.59;1716775;83;20942;-66
2022/07/21 01:09:59;;;;;;;;;;;;;;;20.88;68.16;152903.81;1716505;83;20220;-66
2022/07/21 01:12:26;;;;;;;;;;;;;;;20.79;68.78;152880.28;1703702;83;21133;-61
2022/07/21 01:14:53;;;;;;;;;;;;;;;20.70;68.99;152858.06;1682831;84;20173;-60
2022/07/21 01:17:19;;;;;;;;;;;;;;;20.60;69.37;152831.94;1685543;83;20229;-60
2022/07/21 01:19:46;;;;;;;;;;;;;;;20.53;70.30;152813.63;1711215;83;20185;-67
2022/07/21 01:22:13;;;;;;;;;;;;;;;20.44;70.88;152791.41;1711605;83;20142;-67
2022/07/21 01:24:40;;;;;;;;;;;;;;;20.38;71.21;152775.75;1711332;83;21230;-59
2022/07/21 01:27:07;;;;;;;;;;;;;;;20.32;71.52;152762.69;1711249;83;20208;-60
2022/07/21 01:29:35;;;;;;;;;;;;;;;20.26;71.74;152745.70;1711614;83;20196;-65
2022/07/21 01:32:04;;;;;;;;;;;;;;;20.19;71.76;152728.72;1711116;83;20944;-65
2022/07/21 01:34:31;;;;;;;;;;;;;;;20.13;72.23;152713.05;1711484;83;20156;-60
2022/07/21 01:36:58;;;;;;;;;;;;;;;20.08;72.58;152700.00;1711357;83;21827;-60
2022/07/21 01:42:10;;;;;;;;;;;;;;;19.99;72.22;152679.08;1711558;83;20154;-66
2022/07/21 01:44:36;;;;;;;;;;;;;;;19.96;72.55;152669.97;1711677;83;20197;-66
2022/07/21 01:47:03;;;;;;;;;;;;;;;19.94;72.65;152666.03;1711713;83;20190;-66
2022/07/21 01:49:30;;;;;;;;;;;;;;;19.92;72.60;152659.53;1711809;83;21202;-66
2022/07/21 01:51:57;;;;;;;;;;;;;;;19.90;72.66;152656.87;1711682;83;20173;-66
2022/07/21 01:54:24;;;;;;;;;;;;;;;19.90;72.99;152655.53;1711821;83;20881;-66
2022/07/21 01:56:51;;;;;;;;;;;;;;;19.86;72.87;152645.09;1711556;83;20982;-66
2022/07/21 01:59:18;;;;;;;;;;;;;;;19.82;73.41;152634.66;1711839;83;20426;-66
2022/07/21 02:01:45;;;;;;;;;;;;;;;19.74;73.49;152616.34;1711789;83;21248;-66
2022/07/21 02:04:11;;;;;;;;;;;;;;;19.70;73.49;152605.91;1711655;83;20138;-66
2022/07/21 02:06:38;;;;;;;;;;;;;;;19.66;73.93;152595.47;1712020;83;20185;-66
2022/07/21 02:09:06;;;;;;;;;;;;;;;19.61;74.19;152583.70;1711520;83;20489;-67
2022/07/21 02:11:33;;;;;;;;;;;;;;;19.58;74.35;152574.59;1709093;83;20225;-66
2022/07/21 02:14:01;;;;;;;;;;;;;;;19.56;73.99;152569.33;1716264;83;21290;-67
2022/07/21 02:16:28;;;;;;;;;;;;;;;19.54;73.63;152565.44;1717029;83;20181;-67
2022/07/21 02:18:55;;;;;;;;;;;;;;;19.54;73.44;152564.13;1711401;83;20184;-60
2022/07/21 02:21:23;;;;;;;;;;;;;;;19.53;72.67;152562.84;1710123;83;20616;-60
2022/07/21 02:23:50;;;;;;;;;;;;;;;19.53;72.09;152561.50;1709602;83;20502;-60
2022/07/21 02:26:16;;;;;;;;;;;;;;;19.51;71.19;152556.28;1710363;83;21147;-60
2022/07/21 02:28:45;;;;;;;;;;;;;;;19.49;70.92;152552.41;1710550;83;20137;-59
2022/07/21 02:31:11;;;;;;;;;;;;;;;19.49;69.73;152551.06;1709969;83;21102;-60
2022/07/21 02:33:38;;;;;;;;;;;;;;;19.51;69.77;152556.28;1710239;83;20694;-60
2022/07/21 02:36:07;;;;;;;;;;;;;;;19.52;69.55;152558.91;1709607;83;20174;-60
2022/07/21 02:38:34;;;;;;;;;;;;;;;19.52;68.70;152558.91;1713087;82;21233;-67
2022/07/21 02:41:00;;;;;;;;;;;;;;;19.54;68.53;152564.13;1712745;83;20369;-67
2022/07/21 02:43:27;;;;;;;;;;;;;;;19.55;67.79;152568.05;1713221;83;20201;-67
2022/07/21 02:45:54;;;;;;;;;;;;;;;19.58;67.71;152574.59;1713221;83;20233;-67
2022/07/21 02:48:21;;;;;;;;;;;;;;;19.62;66.99;152585.03;1713081;83;20150;-67
2022/07/21 02:50:48;;;;;;;;;;;;;;;19.65;66.59;152592.86;1713009;82;21271;-67
2022/07/21 02:53:19;;;;;;;;;;;;;;;19.68;66.52;152600.69;1712671;83;20458;-67
2022/07/21 02:55:50;;;;;;;;;;;;;;;19.70;66.27;152605.91;1713296;83;20161;-67
2022/07/21 02:58:19;;;;;;;;;;;;;;;19.72;66.40;152611.12;1713064;83;20158;-67
2022/07/21 03:00:49;;;;;;;;;;;;;;;19.74;66.43;152615.06;1713443;83;20240;-60
2022/07/21 03:03:16;;;;;;;;;;;;;;;19.79;66.80;152626.84;1712716;82;21118;-67
2022/07/21 03:05:43;;;;;;;;;;;;;;;19.79;67.19;152626.84;1713050;83;20152;-68
2022/07/21 03:08:10;;;;;;;;;;;;;;;19.80;67.17;152629.44;1713002;83;20137;-67
2022/07/21 03:10:38;;;;;;;;;;;;;;;19.77;67.39;152622.89;1714837;83;20228;-67
2022/07/21 03:13:05;;;;;;;;;;;;;;;19.75;67.78;152617.67;1710199;82;20211;-67
2022/07/21 03:15:32;;;;;;;;;;;;;;;19.74;68.25;152615.06;1729966;83;21301;-67
2022/07/21 03:17:59;;;;;;;;;;;;;;;19.76;68.25;152621.56;1720974;82;20129;-67
2022/07/21 03:20:27;;;;;;;;;;;;;;;19.78;68.16;152624.17;1705096;83;20180;-67
2022/07/21 03:22:53;;;;;;;;;;;;;;;19.79;67.98;152626.84;1705057;84;20185;-67
2022/07/21 03:25:20;;;;;;;;;;;;;;;19.84;67.97;152639.87;1705168;84;20146;-67
2022/07/21 03:27:47;;;;;;;;;;;;;;;19.86;67.92;152645.09;1705205;84;23006;-66
2022/07/21 03:30:13;;;;;;;;;;;;;;;19.89;67.85;152652.92;1705133;84;20201;-66
2022/07/21 03:32:40;;;;;;;;;;;;;;;19.94;67.93;152666.03;1705069;84;20133;-66
2022/07/21 03:35:08;;;;;;;;;;;;;;;19.97;68.09;152673.86;1704986;84;20938;-59
2022/07/21 03:37:46;;;;;;;;;;;;;;;19.97;68.29;152672.58;1705324;84;20177;-59
2022/07/21 03:40:13;;;;;;;;;;;;;;;19.97;68.49;152673.86;1705015;84;21239;-59
2022/07/21 03:42:40;;;;;;;;;;;;;;;19.98;68.89;152676.47;1705167;84;20470;-59
2022/07/21 03:45:08;;;;;;;;;;;;;;;19.97;69.29;152673.86;1704829;84;20205;-59
2022/07/21 03:47:35;;;;;;;;;;;;;;;19.98;69.98;152676.47;1705189;84;20145;-59
2022/07/21 03:50:01;;;;;;;;;;;;;;;19.97;70.67;152673.86;1704923;84;20233;-59
2022/07/21 03:52:29;;;;;;;;;;;;;;;19.95;70.77;152668.62;1705421;84;21252;-60
2022/07/21 03:55:07;;;;;;;;;;;;;;;19.94;71.50;152666.03;1704777;84;20185;-60
2022/07/21 03:57:27;;;;;;;;;;;;;;;19.96;71.86;152671.25;1703580;84;20189;-60
2022/07/21 03:59:54;;;;;;;;;;;;;;;19.99;72.38;152679.08;1704868;84;20153;-60
2022/07/21 04:02:20;;;;;;;;;;;;;;;20.01;72.46;152683.02;1705194;84;20146;-60
2022/07/21 04:04:47;;;;;;;;;;;;;;;20.01;72.74;152684.34;1704821;83;21237;-60
2022/07/21 04:07:14;;;;;;;;;;;;;;;20.04;73.54;152692.17;1704686;84;20470;-60
2022/07/21 04:09:43;;;;;;;;;;;;;;;20.12;73.22;152711.77;1704876;84;20249;-60
2022/07/21 04:12:10;;;;;;;;;;;;;;;20.16;73.44;152720.88;1711165;82;20225;-59
2022/07/21 04:14:37;;;;;;;;;;;;;;;20.22;73.71;152736.55;1708671;82;20476;-60
2022/07/21 04:17:04;;;;;;;;;;;;;;;20.27;74.16;152748.31;1708022;84;21195;-61
2022/07/21 04:19:31;;;;;;;;;;;;;;;20.32;74.00;152762.69;1685887;84;20227;-60
2022/07/21 04:21:58;;;;;;;;;;;;;;;20.40;73.71;152780.97;1685905;85;20183;-60
2022/07/21 04:24:24;;;;;;;;;;;;;;;20.43;72.96;152790.13;1715251;83;20164;-60
2022/07/21 04:26:51;;;;;;;;;;;;;;;20.44;71.42;152791.41;1722867;82;20183;-58
2022/07/21 04:29:18;;;;;;;;;;;;;;;20.48;71.72;152801.91;1684838;85;21252;-59
2022/07/21 04:31:45;;;;;;;;;;;;;;;20.61;70.46;152834.56;1710485;83;20439;-60
2022/07/21 04:34:13;;;;;;;;;;;;;;;20.69;69.56;152855.44;1710215;82;20257;-59
2022/07/21 04:36:40;;;;;;;;;;;;;;;20.74;67.87;152867.22;1710227;82;20209;-67
2022/07/21 04:39:07;;;;;;;;;;;;;;;20.76;67.42;152873.72;1710265;82;20252;-60
2022/07/21 04:41:34;;;;;;;;;;;;;;;20.83;66.52;152890.77;1710089;82;21217;-60
2022/07/21 04:44:01;;;;;;;;;;;;;;;20.89;65.42;152906.48;1710218;82;20189;-68
2022/07/21 04:46:28;;;;;;;;;;;;;;;20.96;65.25;152922.16;1710011;84;20262;-68
2022/07/21 04:48:55;;;;;;;;;;;;;;;21.01;62.39;152936.53;1709621;82;20757;-67
2022/07/21 04:51:21;;;;;;;;;;;;;;;21.11;61.74;152961.38;1710184;82;20114;-67
2022/07/21 04:53:48;;;;;;;;;;;;;;;21.21;56.35;152984.88;1709847;82;21306;-67
2022/07/21 04:56:15;;;;;;;;;;;;;;;21.25;55.93;152995.33;1709678;82;20164;-66
2022/07/21 04:58:42;;;;;;;;;;;;;;;21.34;55.83;153018.88;1710457;84;20208;-67
2022/07/21 05:01:08;;;;;;;;;;;;;;;21.45;55.03;153047.61;1710087;82;20202;-67
2022/07/21 05:03:35;;;;;;;;;;;;;;;21.54;53.91;153069.84;1710334;82;20218;-67
2022/07/21 05:06:02;;;;;;;;;;;;;;;21.61;53.43;153086.84;1710243;82;21255;-67
2022/07/21 05:08:29;;;;;;;;;;;;;;;21.66;52.31;153099.95;1710159;82;20233;-68
2022/07/21 05:10:57;;;;;;;;;;;;;;;21.73;51.70;153116.97;1705322;82;20478;-68
2022/07/21 05:13:25;;;;;;;;;;;;;;;21.82;51.96;153139.19;1736582;81;20186;-67
2022/07/21 05:15:52;;;;;;;;;;;;;;;21.97;51.51;153178.39;1754497;81;20201;-68
2022/07/21 05:18:19;;;;;;;;;;;;;;;22.08;50.00;153204.56;1754572;81;21068;-68
2022/07/21 05:20:45;;;;;;;;;;;;;;;22.12;49.84;153216.34;1754435;80;20423;-69
2022/07/21 05:23:13;;;;;;;;;;;;;;;22.14;49.29;153220.25;1754280;81;20141;-69
2022/07/21 05:25:39;;;;;;;;;;;;;;;22.17;48.38;153228.09;1754892;81;20194;-60
2022/07/21 05:28:08;;;;;;;;;;;;;;;22.23;48.53;153243.81;1754523;81;20153;-60
2022/07/21 05:30:35;;;;;;;;;;;;;;;22.38;48.85;153280.41;1754377;81;21122;-59
2022/07/21 05:33:02;;;;;;;;;;;;;;;22.52;47.44;153317.09;1754314;81;20141;-59
2022/07/21 05:35:30;;;;;;;;;;;;;;;22.52;47.61;153317.09;1754495;81;20174;-60
2022/07/21 05:37:57;;;;;;;;;;;;;;;22.55;47.24;153324.94;1754181;81;20189;-60
2022/07/21 05:40:25;;;;;;;;;;;;;;;22.56;47.32;153327.55;1754512;81;20127;-60
2022/07/21 05:42:53;;;;;;;;;;;;;;;22.57;47.31;153330.16;1754434;81;21233;-60
2022/07/21 05:45:20;;;;;;;;;;;;;;;22.54;46.58;153322.31;1739813;81;20143;-60
2022/07/21 05:47:47;;;;;;;;;;;;;;;22.54;46.88;153322.31;1731795;82;20182;-60
2022/07/21 05:50:14;;;;;;;;;;;;;;;22.52;46.57;153317.09;1733639;81;20801;-60
2022/07/21 05:52:40;;;;;;;;;;;;;;;22.52;46.88;153315.77;1710938;82;20233;-60
2022/07/21 05:55:08;;;;;;;;;;;;;;;22.58;46.73;153331.50;1710063;82;21704;-60
2022/07/21 05:57:36;;;;;;;;;;;;;;;22.64;46.98;153345.84;1727284;82;20220;-60
2022/07/21 06:00:04;;;;;;;;;;;;;;;22.70;46.69;153361.58;1727219;81;20207;-60
2022/07/21 06:02:32;;;;;;;;;;;;;;;22.78;47.54;153381.22;1726668;81;20211;-60
2022/07/21 06:04:59;;;;;;;;;;;;;;;22.91;47.24;153415.19;1729038;81;20185;-59
2022/07/21 06:07:26;;;;;;;;;;;;;;;23.01;46.72;153440.06;1728202;81;21147;-60
2022/07/21 06:09:53;;;;;;;;;;;;;;;23.11;46.20;153464.92;1731410;81;20466;-60
2022/07/21 06:12:19;;;;;;;;;;;;;;;23.12;45.34;153468.88;1720277;81;20428;-59
2022/07/21 06:14:46;;;;;;;;;;;;;;;23.08;45.99;153458.36;1701523;82;21006;-59
2022/07/21 06:17:15;;;;;;;;;;;;;;;23.12;46.20;153468.88;1706129;82;20190;-59
2022/07/21 06:19:42;;;;;;;;;;;;;;;23.18;46.25;153484.56;1701318;82;21226;-59
2022/07/21 06:22:10;;;;;;;;;;;;;;;23.24;45.08;153497.64;1700450;82;20604;-68
2022/07/21 06:24:37;;;;;;;;;;;;;;;23.23;45.00;153496.34;1701689;82;20472;-59
2022/07/21 06:27:04;;;;;;;;;;;;;;;23.21;45.39;153489.78;1707262;82;20197;-59
2022/07/21 06:29:30;;;;;;;;;;;;;;;23.24;45.16;153497.64;1711743;82;20202;-59
2022/07/21 06:31:58;;;;;;;;;;;;;;;23.22;44.93;153492.41;1709526;82;21201;-60
2022/07/21 06:34:25;;;;;;;;;;;;;;;23.23;45.19;153495.02;1711147;82;20455;-60
2022/07/21 06:36:53;;;;;;;;;;;;;;;23.28;45.08;153508.14;1701545;82;20202;-60
2022/07/21 06:39:21;;;;;;;;;;;;;;;23.35;45.30;153525.16;1703708;82;20181;-59
2022/07/21 06:41:48;;;;;;;;;;;;;;;23.50;45.23;153563.11;1699427;82;20173;-60
2022/07/21 06:44:15;;;;;;;;;;;;;;;23.63;44.87;153597.16;1711705;82;22065;-59
2022/07/21 06:46:41;;;;;;;;;;;;;;;23.67;44.64;153607.62;1710375;82;20218;-58
2022/07/21 06:49:08;;;;;;;;;;;;;;;23.70;44.94;153615.47;1699763;82;20210;-59
2022/07/21 06:51:36;;;;;;;;;;;;;;;23.83;44.64;153646.91;1702162;82;20223;-60
2022/07/21 06:54:03;;;;;;;;;;;;;;;23.86;44.50;153654.75;1702328;82;20287;-60
2022/07/21 06:56:30;;;;;;;;;;;;;;;23.92;44.33;153669.17;1716248;82;21128;-60
2022/07/21 06:58:56;;;;;;;;;;;;;;;23.92;44.07;153670.45;1707528;82;20248;-60
2022/07/21 07:01:25;;;;;;;;;;;;;;;23.99;44.04;153687.48;1709734;82;20141;-60
2022/07/21 07:03:52;;;;;;;;;;;;;;;24.13;44.28;153722.88;1715065;82;20199;-60
2022/07/21 07:06:21;;;;;;;;;;;;;;;24.22;43.92;153746.47;1711108;82;20249;-60
2022/07/21 07:08:49;;;;;;;;;;;;;;;24.18;43.76;153737.28;1719222;82;20670;-60
2022/07/21 07:11:18;;;;;;;;;;;;;;;24.20;43.60;153741.19;1706709;82;20227;-60
2022/07/21 07:13:45;;;;;;;;;;;;;;;24.23;43.29;153749.09;1719597;82;20154;-59
2022/07/21 07:16:12;;;;;;;;;;;;;;;24.25;43.67;153754.33;1721092;82;20514;-69
2022/07/21 07:18:40;;;;;;;;;;;;;;;24.32;42.95;153772.64;1721537;82;20205;-69
2022/07/21 07:21:07;;;;;;;;;;;;;;;24.39;42.96;153788.34;1737589;80;21143;-69
2022/07/21 07:23:34;;;;;;;;;;;;;;;24.31;43.00;153770.03;1728596;82;20227;-60
2022/07/21 07:26:01;;;;;;;;;;;;;;;24.28;43.10;153760.84;1726779;80;20174;-59
2022/07/21 07:28:28;;;;;;;;;;;;;;;24.31;43.28;153770.03;1730953;82;20415;-59
2022/07/21 07:30:55;;;;;;;;;;;;;;;24.42;43.17;153796.19;1726258;81;20181;-60
2022/07/21 07:33:21;;;;;;;;;;;;;;;24.56;42.80;153832.87;1733093;80;21192;-60
2022/07/21 07:35:56;;;;;;;;;;;;;;;24.66;42.39;153856.48;1739529;81;20178;-59
2022/07/21 07:38:24;;;;;;;;;;;;;;;24.64;41.33;153852.53;1727459;82;20167;-59
2022/07/21 07:40:51;;;;;;;;;;;;;;;24.51;41.62;153818.45;1728009;82;20167;-58
2022/07/21 07:43:18;;;;;;;;;;;;;;;24.47;41.69;153809.33;1718635;82;20280;-59
2022/07/21 07:45:44;;;;;;;;;;;;;;;24.50;41.55;153815.84;1716408;82;21269;-60
2022/07/21 07:48:11;;;;;;;;;;;;;;;24.51;41.67;153818.45;1731736;82;20205;-68
2022/07/21 07:50:38;;;;;;;;;;;;;;;24.48;41.42;153811.94;1722676;82;20199;-68
2022/07/21 07:53:05;;;;;;;;;;;;;;;24.58;41.06;153838.11;1721060;82;20210;-68
2022/07/21 07:55:31;;;;;;;;;;;;;;;24.64;40.58;153851.19;1720859;82;20496;-68
2022/07/21 07:57:58;;;;;;;;;;;;;;;24.67;41.03;153859.09;1718904;82;21230;-69
2022/07/21 08:00:26;;;;;;;;;;;;;;;24.86;40.31;153908.88;1717305;82;20215;-60
2022/07/21 08:02:52;;;;;;;;;;;;;;;24.93;39.43;153925.91;1714828;82;20243;-59
2022/07/21 08:05:19;;;;;;;;;;;;;;;24.94;39.11;153928.53;1719649;82;20191;-59
2022/07/21 08:07:46;;;;;;;;;;;;;;;24.94;39.31;153927.25;1723037;82;20657;-59
2022/07/21 08:10:14;;;;;;;;;;;;;;;24.95;39.06;153929.86;1722105;81;21235;-59
2022/07/21 08:12:41;;;;;;;;;;;;;;;24.97;39.48;153935.09;1722756;82;20267;-60
2022/07/21 08:15:08;;;;;;;;;;;;;;;25.08;39.67;153963.89;1703647;82;20227;-60
2022/07/21 08:17:35;;;;;;;;;;;;;;;25.11;38.59;153971.80;1698501;83;20744;-60
2022/07/21 08:20:04;;;;;;;;;;;;;;;25.10;37.96;153969.17;1701184;83;20350;-60
2022/07/21 08:22:30;;;;;;;;;;;;;;;25.06;37.89;153958.66;1695477;83;21760;-61
2022/07/21 08:24:57;;;;;;;;;;;;;;;25.07;38.15;153961.28;1720006;82;20163;-61
2022/07/21 08:27:24;;;;;;;;;;;;;;;25.16;37.77;153984.88;1704010;83;20142;-60
2022/07/21 08:29:52;;;;;;;;;;;;;;;25.22;37.81;153997.97;1702654;82;20202;-60
2022/07/21 08:32:19;;;;;;;;;;;;;;;25.28;37.88;154015.02;1698688;83;20494;-60
2022/07/21 08:34:46;;;;;;;;;;;;;;;25.26;37.85;154008.45;1696052;83;22174;-60
2022/07/21 08:37:13;;;;;;;;;;;;;;;25.24;37.55;154004.55;1706172;82;20270;-69
2022/07/21 08:39:40;;;;;;;;;;;;;;;25.23;37.42;154000.59;1698486;81;20203;-60
2022/07/21 08:42:08;;;;;;;;;;;;;;;25.23;37.38;154000.59;1691048;81;20237;-60
2022/07/21 08:44:35;;;;;;;;;;;;;;;25.12;37.58;153974.41;1696170;82;20222;-61
2022/07/21 08:47:02;;;;;;;;;;;;;;;25.12;37.01;153974.41;1701694;81;21250;-60
2022/07/21 08:49:29;;;;;;;;;;;;;;;25.15;37.44;153982.27;1691575;83;20462;-61
2022/07/21 08:51:55;;;;;;;;;;;;;;;25.21;37.84;153995.36;1708873;82;20201;-61
2022/07/21 08:54:22;;;;;;;;;;;;;;;25.40;37.74;154045.16;1702550;82;20475;-61
2022/07/21 08:56:49;;;;;;;;;;;;;;;25.55;37.64;154081.91;1702541;83;20232;-60
2022/07/21 08:59:16;;;;;;;;;;;;;;;25.66;37.42;154110.70;1698710;82;21216;-60
2022/07/21 09:01:43;;;;;;;;;;;;;;;25.60;37.01;154096.28;1706677;82;20211;-61
2022/07/21 09:04:26;;;;;;;;;;;;;;;25.56;37.27;154085.81;1699998;83;20222;-61
2022/07/21 09:07:04;;;;;;;;;;;;;;;25.62;37.22;154098.91;1706396;82;20224;-61
2022/07/21 09:09:33;;;;;;;;;;;;;;;25.71;36.95;154123.81;1697359;83;20187;-61
2022/07/21 09:12:00;;;;;;;;;;;;;;;25.67;36.13;154113.33;1693850;83;21997;-71
2022/07/21 09:14:32;;;;;;;;;;;;;;;25.55;36.78;154083.19;1699111;83;20121;-71
2022/07/21 09:17:01;;;;;;;;;;;;;;;25.56;36.06;154085.81;1695531;83;20224;-71
2022/07/21 09:19:35;;;;;;;;;;;;;;;25.48;35.94;154063.53;1705054;83;20188;-72
2022/07/21 09:22:04;;;;;;;;;;;;;;;25.45;36.02;154056.95;1707757;83;20215;-71
2022/07/21 09:24:37;;;;;;;;;;;;;;;25.48;36.00;154063.53;1708286;82;21098;-71
2022/07/21 09:27:07;;;;;;;;;;;;;;;25.49;36.38;154066.14;1703322;83;20180;-72
2022/07/21 09:29:36;;;;;;;;;;;;;;;25.66;36.80;154110.70;1698878;83;20148;-61
2022/07/21 09:32:20;;;;;;;;;;;;;;;25.78;36.29;154139.56;1702661;83;20132;-61
2022/07/21 09:34:48;;;;;;;;;;;;;;;25.87;35.98;154163.14;1699097;83;20189;-61
2022/07/21 09:37:18;;;;;;;;;;;;;;;26.02;35.04;154201.14;1703225;83;21265;-61
2022/07/21 09:39:48;;;;;;;;;;;;;;;26.03;35.02;154205.09;1703496;83;20195;-62
2022/07/21 09:42:27;;;;;;;;;;;;;;;25.94;35.21;154181.47;1714191;83;20486;-62
2022/07/21 09:45:00;;;;;;;;;;;;;;;25.84;35.30;154155.28;1712870;83;20576;-72
2022/07/21 09:47:29;;;;;;;;;;;;;;;25.83;35.81;154152.66;1714698;82;20178;-71
2022/07/21 09:49:56;;;;;;;;;;;;;;;25.88;35.97;154165.75;1702831;82;21259;-72
2022/07/21 09:52:26;;;;;;;;;;;;;;;25.94;34.93;154181.47;1704638;83;20194;-72
2022/07/21 09:54:53;;;;;;;;;;;;;;;25.94;33.82;154181.47;1712935;82;20178;-72
2022/07/21 09:57:20;;;;;;;;;;;;;;;25.91;33.83;154173.61;1715011;83;20592;-72
2022/07/21 09:59:48;;;;;;;;;;;;;;;25.91;34.20;154173.61;1704195;83;20229;-71
2022/07/21 10:02:20;;;;;;;;;;;;;;;25.94;33.86;154181.47;1707115;83;21249;-72
2022/07/21 10:04:50;;;;;;;;;;;;;;;25.99;33.95;154194.61;1701186;83;20224;-72
2022/07/21 10:07:17;;;;;;;;;;;;;;;26.02;33.80;154202.47;1706264;83;20136;-72
2022/07/21 10:09:45;;;;;;;;;;;;;;;25.95;33.01;154184.09;1705174;82;20172;-71
2022/07/21 10:12:12;;;;;;;;;;;;;;;25.92;33.25;154176.23;1703385;83;20574;-71
2022/07/21 10:14:39;;;;;;;;;;;;;;;25.97;33.63;154189.33;1701920;82;21188;-71
2022/07/21 10:17:06;;;;;;;;;;;;;;;26.10;33.22;154220.81;1702098;83;20447;-72
2022/07/21 10:19:36;;;;;;;;;;;;;;;26.07;33.34;154212.95;1702686;83;20176;-71
2022/07/21 10:22:22;;;;;;;;;;;;;;;26.13;33.23;154228.66;1701641;83;20225;-72
2022/07/21 10:24:50;;;;;;;;;;;;;;;26.22;33.39;154251.00;1705573;82;20208;-61
2022/07/21 10:27:23;;;;;;;;;;;;;;;26.26;33.26;154262.81;1696677;83;21229;-61
2022/07/21 10:30:08;;;;;;;;;;;;;;;26.33;32.63;154278.53;1712683;82;20252;-61
2022/07/21 10:32:35;;;;;;;;;;;;;;;26.31;32.30;154275.91;1706101;82;20186;-62
2022/07/21 10:35:30;;;;;;;;;;;;;;;26.25;32.68;154258.86;1683452;83;20996;-61
2022/07/21 10:38:07;;;;;;;;;;;;;;;26.27;32.49;154264.09;1684033;82;21178;-71
2022/07/21 10:40:39;;;;;;;;;;;;;;;26.33;32.56;154278.53;1698921;83;20193;-71
2022/07/21 10:43:10;;;;;;;;;;;;;;;26.35;32.66;154285.11;1704167;82;20213;-71
2022/07/21 10:45:39;;;;;;;;;;;;;;;26.28;32.72;154268.06;1700634;82;20181;-71
2022/07/21 10:48:08;;;;;;;;;;;;;;;26.26;33.12;154261.48;1704229;83;20200;-72
2022/07/21 10:50:37;;;;;;;;;;;;;;;26.37;33.51;154289.02;1692435;83;20169;-71
2022/07/21 10:53:06;;;;;;;;;;;;;;;26.43;32.99;154304.78;1695791;83;21298;-71
2022/07/21 10:55:37;;;;;;;;;;;;;;;26.40;32.85;154296.88;1709415;82;21203;-71
2022/07/21 10:58:25;;;;;;;;;;;;;;;26.38;32.63;154291.63;1702113;83;20318;-71
2022/07/21 11:00:53;;;;;;;;;;;;;;;26.42;33.06;154303.44;1706488;81;20186;-72
2022/07/21 11:03:40;;;;;;;;;;;;;;;26.54;32.01;154333.59;1706026;82;20212;-70
2022/07/21 11:06:24;;;;;;;;;;;;;;;26.52;32.45;154328.36;1715180;82;21188;-71
2022/07/21 11:09:02;;;;;;;;;;;;;;;26.52;33.26;154328.36;1702953;83;20159;-72
2022/07/21 11:11:30;;;;;;;;;;;;;;;26.63;33.37;154354.56;1685131;83;20600;-71
2022/07/21 11:14:06;;;;;;;;;;;;;;;26.67;32.90;154366.38;1700614;82;20738;-70
2022/07/21 11:16:54;;;;;;;;;;;;;;;26.66;33.27;154362.47;1695742;84;20197;-70
2022/07/21 11:19:37;;;;;;;;;;;;;;;26.67;33.10;154365.09;1688398;83;21163;-71
2022/07/21 11:22:14;;;;;;;;;;;;;;;26.76;33.37;154388.67;1710614;83;20278;-71
2022/07/21 11:24:43;;;;;;;;;;;;;;;26.80;33.00;154399.16;1715448;83;20618;-71
2022/07/21 11:27:15;;;;;;;;;;;;;;;26.81;33.48;154401.77;1704729;83;20260;-72
2022/07/21 11:29:43;;;;;;;;;;;;;;;26.88;33.09;154420.22;1715742;83;20558;-72
2022/07/21 11:32:11;;;;;;;;;;;;;;;26.91;33.12;154425.45;1717982;83;21088;-72
2022/07/21 11:34:41;;;;;;;;;;;;;;;26.95;32.63;154435.94;1724394;83;20172;-71
2022/07/21 11:37:09;;;;;;;;;;;;;;;26.90;32.46;154422.83;1721289;83;20463;-62
2022/07/21 11:39:36;;;;;;;;;;;;;;;26.83;32.71;154405.72;1718885;83;21022;-62
2022/07/21 11:42:07;;;;;;;;;;;;;;;26.79;32.42;154396.53;1717275;83;20188;-62
2022/07/21 11:44:34;;;;;;;;;;;;;;;26.80;32.55;154397.88;1706582;83;21186;-61
2022/07/21 11:47:02;;;;;;;;;;;;;;;26.88;32.52;154418.88;1706790;83;20593;-72
2022/07/21 11:49:31;;;;;;;;;;;;;;;26.93;32.47;154430.70;1708560;83;20371;-72
2022/07/21 11:52:03;;;;;;;;;;;;;;;27.01;32.08;154453.00;1712725;83;20201;-72
2022/07/21 11:54:37;;;;;;;;;;;;;;;27.06;32.03;154463.47;1701606;84;20120;-71
2022/07/21 11:57:05;;;;;;;;;;;;;;;27.10;32.18;154473.97;1712698;82;21218;-71
2022/07/21 11:59:32;;;;;;;;;;;;;;;27.15;31.87;154488.41;1719297;82;20427;-61
2022/07/21 12:02:24;;;;;;;;;;;;;;;27.16;31.94;154491.03;1717819;83;20436;-71
2022/07/21 12:04:56;;;;;;;;;;;;;;;27.24;32.07;154509.38;1702657;82;20203;-71
2022/07/21 12:07:38;;;;;;;;;;;;;;;27.35;32.01;154536.91;1718673;82;20206;-71
2022/07/21 12:10:09;;;;;;;;;;;;;;;27.44;31.97;154560.55;1717902;82;22045;-73
2022/07/21 12:12:44;;;;;;;;;;;;;;;27.55;31.15;154588.16;1694252;83;20172;-72
2022/07/21 12:15:23;;;;;;;;;;;;;;;27.55;31.06;154588.16;1719367;82;20265;-72
2022/07/21 12:17:51;;;;;;;;;;;;;;;27.49;31.07;154572.31;1722429;82;20206;-73
2022/07/21 12:20:27;;;;;;;;;;;;;;;27.41;31.17;154553.97;1698095;82;20191;-73
2022/07/21 12:22:55;;;;;;;;;;;;;;;27.31;31.30;154527.77;1726202;82;21128;-72
2022/07/21 12:25:36;;;;;;;;;;;;;;;27.27;31.63;154517.23;1721215;82;20267;-70
2022/07/21 12:28:03;;;;;;;;;;;;;;;27.35;31.64;154536.91;1719721;82;20519;-71
2022/07/21 12:30:45;;;;;;;;;;;;;;;27.49;31.29;154572.31;1724970;81;20156;-71
2022/07/21 12:33:13;;;;;;;;;;;;;;;27.54;31.42;154585.53;1696987;83;20208;-71
2022/07/21 12:35:42;;;;;;;;;;;;;;;27.60;31.05;154601.25;1723938;81;21247;-71
2022/07/21 12:38:15;;;;;;;;;;;;;;;27.65;31.25;154614.38;1724240;82;20262;-71
2022/07/21 12:40:48;;;;;;;;;;;;;;;27.72;31.17;154632.72;1729455;82;20223;-72
2022/07/21 12:43:17;;;;;;;;;;;;;;;27.75;30.71;154639.30;1731311;81;20202;-62
2022/07/21 12:45:53;;;;;;;;;;;;;;;27.65;30.87;154613.08;1727582;81;20191;-72